Time;durP1;ratioP1;P1;durP2;ratioP2;P2;SDS_P1;SDS_P2;PMS_P1;PMS_P2;Temp;Humidity;BMP_temperature;BMP_pressure;BME280_temperature;BME280_humidity;BME280_pressure;Samples;Min_cycle;Max_cycle;Signal;HPM_P1;HPM_P2
2022/03/23 00:02:03;;;;;;;93.97;71.40;;;;;;;;;;5008865;28;20525;-62
2022/03/23 00:04:31;;;;;;;90.85;72.35;;;;;;;;;;5008760;28;20052;-62
2022/03/23 00:06:59;;;;;;;91.95;71.18;;;;;;;;;;5023205;28;20116;-62
2022/03/23 00:09:26;;;;;;;97.82;73.70;;;;;;;;;;5025885;28;20436;-63
2022/03/23 00:11:52;;;;;;;98.82;74.72;;;;;;;;;;5026224;28;20112;-62
2022/03/23 00:14:18;;;;;;;103.25;76.25;;;;;;;;;;5027122;28;20124;-61
2022/03/23 00:16:44;;;;;;;97.28;75.65;;;;;;;;;;5027287;28;20522;-62
2022/03/23 00:19:11;;;;;;;106.05;78.32;;;;;;;;;;5025736;28;20041;-61
2022/03/23 00:21:37;;;;;;;101.80;78.35;;;;;;;;;;5026023;28;20049;-61
2022/03/23 00:24:04;;;;;;;93.00;72.78;;;;;;;;;;5027244;28;20041;-62
2022/03/23 00:26:30;;;;;;;102.32;76.72;;;;;;;;;;5025534;28;20508;-61
2022/03/23 00:28:56;;;;;;;104.60;77.93;;;;;;;;;;5026737;28;20046;-63
2022/03/23 00:31:22;;;;;;;100.47;76.88;;;;;;;;;;5024401;28;20034;-63
2022/03/23 00:33:50;;;;;;;105.05;78.68;;;;;;;;;;5025922;28;20065;-63
2022/03/23 00:36:16;;;;;;;102.07;76.90;;;;;;;;;;5041250;28;20041;-62
2022/03/23 00:38:44;;;;;;;100.53;77.35;;;;;;;;;;5026309;28;20120;-64
2022/03/23 00:41:11;;;;;;;103.88;77.93;;;;;;;;;;5024844;28;20042;-62
2022/03/23 00:43:37;;;;;;;104.25;79.57;;;;;;;;;;5040571;28;20438;-63
2022/03/23 00:46:04;;;;;;;100.20;78.47;;;;;;;;;;5026256;28;20614;-61
2022/03/23 00:48:30;;;;;;;104.00;75.45;;;;;;;;;;5026334;28;20041;-62
2022/03/23 00:50:56;;;;;;;107.88;76.88;;;;;;;;;;5025361;28;20154;-63
2022/03/23 00:53:22;;;;;;;102.82;78.70;;;;;;;;;;5026423;28;20076;-64
2022/03/23 00:55:49;;;;;;;100.78;76.60;;;;;;;;;;5025767;28;20041;-62
2022/03/23 00:58:15;;;;;;;110.22;80.57;;;;;;;;;;5008125;28;20052;-62
2022/03/23 01:00:42;;;;;;;109.65;81.90;;;;;;;;;;5025814;28;20041;-62
2022/03/23 01:03:10;;;;;;;107.28;79.22;;;;;;;;;;5024017;28;20215;-64
2022/03/23 01:05:36;;;;;;;110.05;82.63;;;;;;;;;;5025498;28;20048;-63
2022/03/23 01:08:02;;;;;;;110.72;81.45;;;;;;;;;;5025870;28;20402;-63
2022/03/23 01:10:29;;;;;;;110.03;81.72;;;;;;;;;;5025808;28;20500;-62
2022/03/23 01:12:55;;;;;;;111.25;81.38;;;;;;;;;;5040830;28;20049;-63
2022/03/23 01:15:22;;;;;;;112.40;83.78;;;;;;;;;;5028878;28;20087;-63
2022/03/23 01:17:48;;;;;;;117.75;84.88;;;;;;;;;;5025703;28;20579;-63
2022/03/23 01:20:15;;;;;;;106.55;78.18;;;;;;;;;;5028268;28;20057;-63
2022/03/23 01:22:43;;;;;;;116.22;85.30;;;;;;;;;;5027846;28;20044;-63
2022/03/23 01:25:09;;;;;;;123.47;89.55;;;;;;;;;;5026868;28;20403;-62
2022/03/23 01:27:39;;;;;;;115.47;85.90;;;;;;;;;;5029333;28;20502;-62
2022/03/23 01:30:06;;;;;;;116.60;87.05;;;;;;;;;;5027732;28;20103;-63
2022/03/23 01:32:33;;;;;;;117.85;85.55;;;;;;;;;;5027804;28;20038;-61
2022/03/23 01:34:59;;;;;;;121.60;90.55;;;;;;;;;;5027476;28;20076;-61
2022/03/23 01:37:25;;;;;;;114.63;84.35;;;;;;;;;;5029260;28;20495;-62
2022/03/23 01:39:51;;;;;;;119.30;86.30;;;;;;;;;;5010799;28;20049;-62
2022/03/23 01:42:17;;;;;;;117.43;87.18;;;;;;;;;;5027755;28;20042;-62
2022/03/23 01:44:44;;;;;;;113.30;85.97;;;;;;;;;;5029119;28;20418;-62
2022/03/23 01:47:11;;;;;;;122.38;86.10;;;;;;;;;;5028079;28;20033;-62
2022/03/23 01:49:39;;;;;;;120.13;85.93;;;;;;;;;;5028796;28;20034;-62
2022/03/23 01:52:06;;;;;;;120.35;86.25;;;;;;;;;;5027486;28;20073;-63
2022/03/23 01:54:32;;;;;;;127.13;90.47;;;;;;;;;;5027023;28;20041;-62
2022/03/23 01:56:59;;;;;;;118.07;85.70;;;;;;;;;;5028044;28;20049;-62
2022/03/23 01:59:26;;;;;;;118.55;85.03;;;;;;;;;;5027734;28;20045;-62
2022/03/23 02:01:53;;;;;;;115.65;81.97;;;;;;;;;;5029501;28;20053;-62
2022/03/23 02:04:19;;;;;;;115.68;85.85;;;;;;;;;;4993945;28;20092;-62
2022/03/23 02:06:46;;;;;;;121.43;90.07;;;;;;;;;;5027751;28;20037;-62
2022/03/23 02:09:12;;;;;;;113.93;83.47;;;;;;;;;;5028850;28;20044;-63
2022/03/23 02:11:39;;;;;;;123.85;87.63;;;;;;;;;;5029245;28;20124;-62
2022/03/23 02:14:05;;;;;;;122.47;86.65;;;;;;;;;;5027466;28;20038;-62
2022/03/23 02:16:38;;;;;;;125.88;89.70;;;;;;;;;;5029280;28;20040;-62
2022/03/23 02:19:04;;;;;;;129.68;91.43;;;;;;;;;;5008403;28;20045;-63
2022/03/23 02:21:30;;;;;;;125.25;90.53;;;;;;;;;;5027555;28;20069;-62
2022/03/23 02:23:57;;;;;;;124.20;90.07;;;;;;;;;;5028833;28;20041;-62
2022/03/23 02:26:24;;;;;;;147.05;100.00;;;;;;;;;;5026915;28;20518;-63
2022/03/23 02:28:50;;;;;;;136.40;94.80;;;;;;;;;;5029025;28;20045;-63
2022/03/23 02:31:16;;;;;;;136.20;98.15;;;;;;;;;;5010056;28;20149;-63
2022/03/23 02:33:43;;;;;;;125.32;91.43;;;;;;;;;;5027575;28;20325;-62
2022/03/23 02:36:10;;;;;;;127.72;92.25;;;;;;;;;;5027451;28;20431;-63
2022/03/23 02:38:37;;;;;;;132.98;94.75;;;;;;;;;;5027371;28;20049;-61
2022/03/23 02:41:03;;;;;;;136.35;98.30;;;;;;;;;;5026601;28;20040;-62
2022/03/23 02:43:29;;;;;;;135.88;97.82;;;;;;;;;;5027436;28;20044;-62
2022/03/23 02:45:56;;;;;;;132.63;95.63;;;;;;;;;;5027898;28;20436;-63
2022/03/23 02:48:22;;;;;;;135.75;97.68;;;;;;;;;;5027583;28;20110;-62
2022/03/23 02:50:48;;;;;;;140.85;98.13;;;;;;;;;;5025781;28;20037;-63
2022/03/23 03:01:53;;;;;;;111.85;81.95;;;;;;;;;;5026845;28;20152;-62
2022/03/23 03:04:20;;;;;;;109.93;82.30;;;;;;;;;;5027434;28;20045;-62
2022/03/23 03:06:46;;;;;;;92.10;70.93;;;;;;;;;;5027735;28;20045;-64
2022/03/23 03:09:13;;;;;;;97.30;75.50;;;;;;;;;;5025037;28;20437;-62
2022/03/23 03:11:39;;;;;;;97.57;75.70;;;;;;;;;;5026751;28;20048;-62
2022/03/23 03:14:05;;;;;;;101.93;72.90;;;;;;;;;;5026087;28;20037;-61
2022/03/23 03:16:31;;;;;;;99.40;75.15;;;;;;;;;;5025350;28;20510;-60
2022/03/23 03:18:57;;;;;;;100.63;74.57;;;;;;;;;;5010679;28;20042;-60
2022/03/23 03:21:23;;;;;;;104.90;75.20;;;;;;;;;;5027541;28;20132;-61
2022/03/23 03:23:49;;;;;;;103.05;75.30;;;;;;;;;;5027267;28;20041;-60
2022/03/23 03:26:16;;;;;;;105.70;76.90;;;;;;;;;;5027782;28;20045;-61
2022/03/23 03:28:43;;;;;;;92.10;71.78;;;;;;;;;;5027989;28;20403;-61
2022/03/23 03:31:13;;;;;;;107.78;81.80;;;;;;;;;;5028066;28;20130;-61
2022/03/23 03:33:39;;;;;;;116.15;85.38;;;;;;;;;;5025417;28;20359;-60
2022/03/23 03:36:06;;;;;;;121.78;91.03;;;;;;;;;;5026882;28;20048;-61
2022/03/23 03:38:32;;;;;;;126.53;95.28;;;;;;;;;;5008909;28;20045;-62
2022/03/23 03:40:59;;;;;;;132.57;98.10;;;;;;;;;;5026492;28;20092;-60
2022/03/23 03:43:25;;;;;;;140.63;100.95;;;;;;;;;;5042004;28;20556;-61
2022/03/23 03:45:52;;;;;;;142.15;102.03;;;;;;;;;;5025683;28;20037;-61
2022/03/23 03:48:18;;;;;;;138.20;101.32;;;;;;;;;;5025562;28;20524;-62
2022/03/23 03:50:44;;;;;;;152.40;105.93;;;;;;;;;;5027491;28;20050;-61
2022/03/23 03:53:10;;;;;;;142.35;103.00;;;;;;;;;;5027420;28;20056;-60
2022/03/23 03:55:37;;;;;;;150.68;105.47;;;;;;;;;;5027370;28;20534;-61
2022/03/23 03:58:04;;;;;;;152.95;109.32;;;;;;;;;;5027726;28;20045;-62
2022/03/23 04:00:31;;;;;;;157.75;107.93;;;;;;;;;;5026211;28;20124;-60
2022/03/23 04:02:57;;;;;;;136.98;97.95;;;;;;;;;;5025799;28;20364;-61
2022/03/23 04:05:23;;;;;;;156.25;108.63;;;;;;;;;;5027435;28;20041;-61
2022/03/23 04:07:49;;;;;;;158.68;108.63;;;;;;;;;;5024961;28;20088;-60
2022/03/23 04:10:15;;;;;;;163.05;109.72;;;;;;;;;;5025904;28;20095;-60
2022/03/23 04:12:41;;;;;;;165.55;111.85;;;;;;;;;;5025571;28;20617;-61
2022/03/23 04:15:08;;;;;;;164.13;110.97;;;;;;;;;;5026740;28;20037;-61
2022/03/23 04:17:34;;;;;;;174.68;115.97;;;;;;;;;;5026772;28;21303;-61
2022/03/23 04:20:00;;;;;;;166.48;110.15;;;;;;;;;;5025385;28;20045;-61
2022/03/23 04:22:26;;;;;;;137.93;93.35;;;;;;;;;;5023050;28;20056;-62
2022/03/23 04:24:52;;;;;;;142.55;99.50;;;;;;;;;;5024595;28;20136;-61
2022/03/23 04:27:18;;;;;;;140.25;98.00;;;;;;;;;;5025389;28;20080;-63
2022/03/23 04:29:45;;;;;;;137.73;97.57;;;;;;;;;;5025080;28;20048;-62
2022/03/23 04:32:11;;;;;;;152.68;105.72;;;;;;;;;;5026361;28;20541;-61
2022/03/23 04:34:37;;;;;;;130.10;95.88;;;;;;;;;;5026139;28;20050;-63
2022/03/23 04:37:03;;;;;;;148.30;104.68;;;;;;;;;;5025191;28;20051;-63
2022/03/23 04:39:29;;;;;;;134.05;97.75;;;;;;;;;;5025108;28;20041;-62
2022/03/23 04:41:55;;;;;;;127.97;92.20;;;;;;;;;;5024816;28;20045;-62
2022/03/23 04:44:21;;;;;;;116.88;85.75;;;;;;;;;;5024563;28;20053;-63
2022/03/23 04:46:47;;;;;;;131.23;95.63;;;;;;;;;;5026210;28;20068;-61
2022/03/23 04:49:14;;;;;;;123.88;88.07;;;;;;;;;;5029495;28;20044;-62
2022/03/23 04:51:40;;;;;;;127.68;90.45;;;;;;;;;;5029146;28;20073;-62
2022/03/23 04:54:06;;;;;;;106.47;79.25;;;;;;;;;;5029138;28;20053;-62
2022/03/23 04:56:33;;;;;;;105.82;79.10;;;;;;;;;;5030870;28;20133;-63
2022/03/23 04:58:59;;;;;;;115.40;84.10;;;;;;;;;;5031393;28;20037;-62
2022/03/23 05:01:26;;;;;;;118.30;85.00;;;;;;;;;;5030100;28;20088;-62
2022/03/23 05:03:52;;;;;;;109.88;80.35;;;;;;;;;;5028817;28;20049;-63
2022/03/23 05:06:19;;;;;;;115.88;85.03;;;;;;;;;;5029852;28;20045;-62
2022/03/23 05:08:45;;;;;;;104.05;75.28;;;;;;;;;;5030830;28;20048;-63
2022/03/23 05:11:11;;;;;;;96.78;70.30;;;;;;;;;;5030123;28;20033;-62
2022/03/23 05:13:37;;;;;;;91.15;69.93;;;;;;;;;;5030774;28;20041;-62
2022/03/23 05:16:03;;;;;;;95.57;70.30;;;;;;;;;;5029359;28;20037;-63
2022/03/23 05:18:30;;;;;;;87.95;67.95;;;;;;;;;;5028253;28;20525;-63
2022/03/23 05:20:56;;;;;;;82.50;63.10;;;;;;;;;;5030804;28;20053;-62
2022/03/23 05:23:22;;;;;;;83.47;63.58;;;;;;;;;;5028846;28;20507;-62
2022/03/23 05:25:48;;;;;;;81.38;62.80;;;;;;;;;;5028600;28;20033;-63
2022/03/23 05:28:14;;;;;;;83.88;63.85;;;;;;;;;;5029057;28;20391;-63
2022/03/23 05:30:40;;;;;;;89.82;63.10;;;;;;;;;;5030546;28;20041;-63
2022/03/23 05:33:06;;;;;;;75.70;58.90;;;;;;;;;;5030667;28;20040;-62
2022/03/23 05:35:32;;;;;;;73.53;54.83;;;;;;;;;;5030171;28;20057;-62
2022/03/23 05:37:58;;;;;;;66.55;51.38;;;;;;;;;;5030571;28;20045;-62
2022/03/23 05:40:25;;;;;;;70.65;53.85;;;;;;;;;;5012859;28;20049;-62
2022/03/23 05:42:51;;;;;;;74.95;54.78;;;;;;;;;;5028813;28;20060;-60
2022/03/23 05:45:17;;;;;;;73.43;56.38;;;;;;;;;;5030115;28;20518;-62
2022/03/23 05:47:43;;;;;;;74.82;56.10;;;;;;;;;;5029898;28;20048;-62
2022/03/23 05:50:10;;;;;;;66.10;49.08;;;;;;;;;;5044203;28;20040;-62
2022/03/23 05:52:37;;;;;;;64.72;51.10;;;;;;;;;;5029935;28;20048;-63
2022/03/23 05:55:05;;;;;;;60.50;47.05;;;;;;;;;;5045024;28;20049;-62
2022/03/23 05:57:31;;;;;;;64.63;47.13;;;;;;;;;;5012456;28;20459;-64
2022/03/23 05:59:58;;;;;;;63.50;48.22;;;;;;;;;;5026664;28;20040;-62
2022/03/23 06:02:24;;;;;;;64.65;50.50;;;;;;;;;;5028361;28;20037;-63
2022/03/23 06:04:50;;;;;;;61.60;46.25;;;;;;;;;;5028988;28;20124;-63
2022/03/23 06:07:16;;;;;;;56.38;44.85;;;;;;;;;;5027614;28;20053;-62
2022/03/23 06:09:42;;;;;;;53.65;40.47;;;;;;;;;;5027588;28;20535;-63
2022/03/23 06:12:11;;;;;;;54.45;44.10;;;;;;;;;;5028879;28;20392;-63
2022/03/23 06:14:38;;;;;;;53.78;39.83;;;;;;;;;;5027038;28;20052;-63
2022/03/23 06:17:06;;;;;;;49.88;40.47;;;;;;;;;;5028941;28;20119;-63
2022/03/23 06:19:32;;;;;;;52.25;40.58;;;;;;;;;;5026468;28;20049;-62
2022/03/23 06:21:58;;;;;;;50.53;40.70;;;;;;;;;;5028707;28;20042;-61
2022/03/23 06:24:24;;;;;;;52.65;41.75;;;;;;;;;;5026391;28;20569;-62
2022/03/23 06:26:50;;;;;;;48.28;38.42;;;;;;;;;;5026650;28;20527;-62
2022/03/23 06:29:16;;;;;;;50.63;39.15;;;;;;;;;;5026840;28;20488;-63
2022/03/23 06:31:42;;;;;;;48.85;39.67;;;;;;;;;;5025226;28;20037;-62
2022/03/23 06:34:08;;;;;;;44.40;37.38;;;;;;;;;;5029256;28;20146;-62
2022/03/23 06:36:35;;;;;;;43.03;37.83;;;;;;;;;;5026527;28;20088;-63
2022/03/23 06:39:01;;;;;;;46.35;37.85;;;;;;;;;;5027491;28;20128;-63
2022/03/23 06:41:27;;;;;;;48.92;38.88;;;;;;;;;;5010546;28;20044;-62
2022/03/23 06:43:54;;;;;;;46.25;37.95;;;;;;;;;;5025464;28;20046;-61
2022/03/23 06:46:20;;;;;;;44.58;36.15;;;;;;;;;;5042959;28;20544;-63
2022/03/23 06:48:47;;;;;;;41.35;35.67;;;;;;;;;;5007793;28;20049;-63
2022/03/23 06:51:13;;;;;;;45.63;35.80;;;;;;;;;;5028278;28;20038;-62
2022/03/23 06:53:39;;;;;;;38.88;34.08;;;;;;;;;;5007699;28;20038;-62
2022/03/23 06:56:05;;;;;;;39.65;33.40;;;;;;;;;;5024961;28;20038;-61
2022/03/23 06:58:31;;;;;;;40.08;34.30;;;;;;;;;;5026419;28;20107;-63
2022/03/23 07:00:58;;;;;;;41.55;33.03;;;;;;;;;;5026462;28;20402;-62
2022/03/23 07:03:24;;;;;;;40.78;33.13;;;;;;;;;;5027809;28;20506;-62
2022/03/23 07:05:50;;;;;;;41.35;33.30;;;;;;;;;;5027559;28;20045;-62
2022/03/23 07:11:01;;;;;;;39.72;35.22;;;;;;;;;;5027406;28;20056;-62
2022/03/23 07:13:28;;;;;;;34.55;30.80;;;;;;;;;;5026954;28;20037;-63
2022/03/23 07:15:54;;;;;;;34.97;30.73;;;;;;;;;;5027313;28;20045;-62
2022/03/23 07:18:20;;;;;;;33.97;29.95;;;;;;;;;;5027729;28;20037;-63
2022/03/23 07:20:46;;;;;;;35.67;29.50;;;;;;;;;;5027285;28;20037;-62
2022/03/23 07:23:12;;;;;;;35.13;30.50;;;;;;;;;;5026327;28;20037;-62
2022/03/23 07:25:38;;;;;;;34.35;30.25;;;;;;;;;;5026451;28;20033;-62
2022/03/23 07:28:04;;;;;;;36.75;32.88;;;;;;;;;;5027876;28;20483;-62
2022/03/23 07:30:33;;;;;;;35.90;31.20;;;;;;;;;;5026028;28;20494;-62
2022/03/23 07:33:00;;;;;;;34.38;29.70;;;;;;;;;;5025853;28;20037;-62
2022/03/23 07:35:27;;;;;;;34.67;30.80;;;;;;;;;;5026682;28;20065;-62
2022/03/23 07:37:53;;;;;;;32.58;29.17;;;;;;;;;;5026445;28;20045;-63
2022/03/23 07:40:19;;;;;;;34.03;30.38;;;;;;;;;;5027727;28;20033;-63
2022/03/23 07:42:45;;;;;;;31.75;28.40;;;;;;;;;;5027182;28;20460;-62
2022/03/23 07:45:12;;;;;;;30.88;27.30;;;;;;;;;;5028339;28;20084;-62
2022/03/23 07:47:38;;;;;;;31.88;28.48;;;;;;;;;;5027934;28;20037;-63
2022/03/23 07:50:05;;;;;;;33.42;29.83;;;;;;;;;;5025165;28;20052;-61
2022/03/23 07:52:31;;;;;;;33.22;27.92;;;;;;;;;;5027045;28;20495;-62
2022/03/23 07:54:57;;;;;;;32.35;28.05;;;;;;;;;;5027975;28;20135;-63
2022/03/23 07:57:23;;;;;;;31.30;27.75;;;;;;;;;;5026416;28;20037;-63
2022/03/23 07:59:49;;;;;;;32.65;29.25;;;;;;;;;;5024400;28;20111;-63
2022/03/23 08:02:15;;;;;;;31.75;27.33;;;;;;;;;;5027874;28;20087;-63
2022/03/23 08:04:41;;;;;;;31.35;26.42;;;;;;;;;;5027968;28;20053;-63
2022/03/23 08:07:07;;;;;;;31.02;26.58;;;;;;;;;;5026558;28;20068;-62
2022/03/23 08:09:33;;;;;;;31.55;26.77;;;;;;;;;;5025560;28;20099;-62
2022/03/23 08:12:00;;;;;;;29.60;26.60;;;;;;;;;;5026849;28;20067;-62
2022/03/23 08:14:26;;;;;;;31.80;28.42;;;;;;;;;;5025194;28;20606;-62
2022/03/23 08:16:52;;;;;;;31.67;27.42;;;;;;;;;;5025201;28;20444;-62
2022/03/23 08:19:20;;;;;;;29.80;26.50;;;;;;;;;;5025579;28;20053;-62
2022/03/23 08:21:46;;;;;;;30.52;27.42;;;;;;;;;;5024210;28;20355;-62
2022/03/23 08:24:12;;;;;;;30.70;27.52;;;;;;;;;;5041017;28;20091;-62
2022/03/23 08:26:38;;;;;;;30.95;27.50;;;;;;;;;;5025920;28;20428;-63
2022/03/23 08:29:04;;;;;;;32.13;28.13;;;;;;;;;;5025600;28;20040;-63
2022/03/23 08:31:30;;;;;;;31.77;28.42;;;;;;;;;;5026450;28;20033;-62
2022/03/23 08:33:57;;;;;;;31.33;28.13;;;;;;;;;;5041547;28;20080;-62
2022/03/23 08:36:23;;;;;;;31.42;28.10;;;;;;;;;;5026853;28;20145;-63
2022/03/23 08:38:49;;;;;;;31.95;28.65;;;;;;;;;;5026123;28;20060;-62
2022/03/23 08:41:16;;;;;;;29.13;26.00;;;;;;;;;;5026580;28;20048;-62
2022/03/23 08:43:42;;;;;;;31.70;28.23;;;;;;;;;;5025570;28;20077;-63
2022/03/23 08:46:12;;;;;;;31.50;28.10;;;;;;;;;;5024450;28;20092;-62
2022/03/23 08:48:38;;;;;;;29.98;26.75;;;;;;;;;;5024390;28;20041;-63
2022/03/23 08:51:04;;;;;;;30.17;26.95;;;;;;;;;;5023332;28;20587;-62
2022/03/23 08:53:31;;;;;;;29.08;25.98;;;;;;;;;;5025601;28;20064;-60
2022/03/23 08:55:57;;;;;;;31.85;27.80;;;;;;;;;;5025340;28;20054;-63
2022/03/23 08:58:24;;;;;;;30.05;26.48;;;;;;;;;;5024402;28;20538;-63
2022/03/23 09:00:50;;;;;;;31.00;27.90;;;;;;;;;;5026411;28;20099;-62
2022/03/23 09:03:16;;;;;;;31.33;28.00;;;;;;;;;;5025679;28;20041;-62
2022/03/23 09:05:42;;;;;;;30.48;27.27;;;;;;;;;;5025779;28;20041;-62
2022/03/23 09:08:08;;;;;;;28.25;25.23;;;;;;;;;;5024667;28;20513;-63
2022/03/23 09:10:35;;;;;;;30.02;27.05;;;;;;;;;;5024786;28;20073;-63
2022/03/23 09:13:01;;;;;;;29.65;26.65;;;;;;;;;;5025948;28;20037;-63
2022/03/23 09:15:27;;;;;;;29.70;26.08;;;;;;;;;;5025816;28;20140;-62
2022/03/23 09:17:58;;;;;;;30.38;27.30;;;;;;;;;;5023874;28;20068;-62
2022/03/23 09:20:28;;;;;;;29.40;26.42;;;;;;;;;;5025781;28;20046;-62
2022/03/23 09:22:54;;;;;;;29.23;26.08;;;;;;;;;;5024243;28;20080;-63
2022/03/23 09:25:22;;;;;;;27.27;24.35;;;;;;;;;;5026631;28;20118;-64
2022/03/23 09:27:48;;;;;;;28.30;25.42;;;;;;;;;;5025728;28;20049;-61
2022/03/23 09:30:15;;;;;;;27.10;24.13;;;;;;;;;;5026498;28;20057;-63
2022/03/23 09:32:46;;;;;;;27.58;24.67;;;;;;;;;;5022539;28;20044;-62
2022/03/23 09:35:12;;;;;;;27.88;25.20;;;;;;;;;;5025774;28;20065;-62
2022/03/23 09:37:47;;;;;;;26.70;23.83;;;;;;;;;;5029009;28;20076;-63
2022/03/23 09:40:15;;;;;;;27.25;24.35;;;;;;;;;;5028241;28;20420;-63
2022/03/23 09:42:43;;;;;;;26.90;24.25;;;;;;;;;;5029520;28;20041;-63
2022/03/23 09:45:11;;;;;;;28.83;24.13;;;;;;;;;;5029046;28;20522;-63
2022/03/23 09:47:38;;;;;;;25.98;23.27;;;;;;;;;;5027294;28;20048;-62
2022/03/23 09:50:04;;;;;;;26.60;23.52;;;;;;;;;;5029576;28;20519;-62
2022/03/23 09:52:30;;;;;;;26.45;23.65;;;;;;;;;;5030049;28;20060;-63
2022/03/23 09:54:56;;;;;;;24.80;22.33;;;;;;;;;;5029997;28;20067;-62
2022/03/23 09:57:22;;;;;;;26.20;23.40;;;;;;;;;;5030214;28;20068;-62
2022/03/23 09:59:48;;;;;;;26.17;23.40;;;;;;;;;;5029804;28;20045;-62
2022/03/23 10:02:47;;;;;;;24.95;22.40;;;;;;;;;;5030357;28;20029;-63
2022/03/23 10:05:25;;;;;;;26.02;23.05;;;;;;;;;;5036176;28;20053;-62
2022/03/23 10:08:09;;;;;;;24.10;21.70;;;;;;;;;;5030130;28;20120;-64
2022/03/23 10:10:43;;;;;;;24.17;21.98;;;;;;;;;;5027385;28;20083;-62
2022/03/23 10:13:08;;;;;;;;;;;;;;;;;;5029472;28;20442;-62
2022/03/23 10:15:43;;;;;;;25.13;22.55;;;;;;;;;;5029768;28;19925;-63
2022/03/23 10:18:24;;;;;;;25.95;23.40;;;;;;;;;;5043397;28;20033;-63
2022/03/23 10:20:51;;;;;;;24.45;22.17;;;;;;;;;;5011900;28;20480;-62
2022/03/23 10:23:21;;;;;;;24.77;22.50;;;;;;;;;;5028205;28;20475;-63
2022/03/23 10:25:47;;;;;;;24.38;21.95;;;;;;;;;;5028371;28;20041;-63
2022/03/23 10:28:14;;;;;;;23.92;21.45;;;;;;;;;;5030030;28;20076;-63
2022/03/23 10:30:40;;;;;;;23.55;21.27;;;;;;;;;;5028649;28;20095;-62
2022/03/23 10:33:36;;;;;;;24.35;22.05;;;;;;;;;;5027935;28;20045;-62
2022/03/23 10:36:02;;;;;;;24.17;21.80;;;;;;;;;;5028328;28;20053;-63
2022/03/23 10:38:29;;;;;;;22.70;20.60;;;;;;;;;;5026492;28;20095;-62
2022/03/23 10:40:55;;;;;;;24.33;21.92;;;;;;;;;;5027476;28;20091;-62
2022/03/23 10:43:23;;;;;;;22.85;20.63;;;;;;;;;;5028104;28;20487;-62
2022/03/23 10:45:49;;;;;;;23.63;21.35;;;;;;;;;;5027212;28;20045;-62
2022/03/23 10:48:18;;;;;;;25.98;22.52;;;;;;;;;;5027698;28;20044;-63
2022/03/23 10:50:54;;;;;;;23.85;21.33;;;;;;;;;;5028735;28;20163;-62
2022/03/23 10:53:46;;;;;;;23.45;21.08;;;;;;;;;;5027183;28;20037;-62
2022/03/23 10:56:12;;;;;;;22.38;20.17;;;;;;;;;;5027955;28;20449;-62
2022/03/23 10:58:38;;;;;;;22.50;20.33;;;;;;;;;;5028070;28;20459;-64
2022/03/23 11:01:05;;;;;;;21.67;19.48;;;;;;;;;;5027848;28;20034;-62
2022/03/23 11:03:39;;;;;;;20.77;18.58;;;;;;;;;;5026785;28;20038;-63
2022/03/23 11:06:06;;;;;;;21.35;19.35;;;;;;;;;;5029005;28;20039;-62
2022/03/23 11:08:32;;;;;;;21.10;18.95;;;;;;;;;;5029382;28;20481;-63
2022/03/23 11:16:39;;;;;;;22.20;19.65;;;;;;;;;;5027140;28;20113;-64
2022/03/23 11:19:10;;;;;;;21.95;19.83;;;;;;;;;;5026425;28;20041;-63
2022/03/23 11:21:56;;;;;;;19.98;17.90;;;;;;;;;;5027356;28;20075;-62
2022/03/23 11:24:22;;;;;;;20.50;18.17;;;;;;;;;;5027177;28;20111;-62
2022/03/23 11:26:49;;;;;;;21.75;19.45;;;;;;;;;;5028516;28;20045;-63
2022/03/23 11:29:17;;;;;;;19.48;17.58;;;;;;;;;;5026620;28;20037;-62
2022/03/23 11:31:43;;;;;;;20.35;18.52;;;;;;;;;;5028957;28;20052;-63
2022/03/23 11:34:10;;;;;;;20.30;18.30;;;;;;;;;;5028912;28;20069;-62
2022/03/23 11:36:37;;;;;;;20.70;18.60;;;;;;;;;;5028575;28;20052;-63
2022/03/23 11:39:04;;;;;;;20.95;18.92;;;;;;;;;;5029160;28;20878;-64
2022/03/23 11:41:30;;;;;;;20.13;18.13;;;;;;;;;;5028746;28;20049;-63
2022/03/23 11:43:57;;;;;;;19.88;17.95;;;;;;;;;;5029137;28;20046;-63
2022/03/23 11:46:24;;;;;;;20.20;18.35;;;;;;;;;;5027359;28;20176;-62
2022/03/23 11:49:12;;;;;;;21.55;19.42;;;;;;;;;;5027610;28;20071;-64
2022/03/23 11:51:44;;;;;;;21.38;19.20;;;;;;;;;;5028692;28;20045;-65
2022/03/23 11:54:27;;;;;;;20.77;18.98;;;;;;;;;;5028829;28;20033;-63
2022/03/23 11:56:58;;;;;;;19.50;17.50;;;;;;;;;;5027032;28;20041;-62
2022/03/23 11:59:30;;;;;;;19.63;17.52;;;;;;;;;;5028713;28;20539;-63
2022/03/23 12:01:57;;;;;;;17.10;15.55;;;;;;;;;;5026699;28;20080;-64
2022/03/23 12:04:24;;;;;;;17.95;16.35;;;;;;;;;;5028799;28;20518;-63
2022/03/23 12:07:04;;;;;;;18.50;16.70;;;;;;;;;;5028440;28;20049;-64
2022/03/23 12:09:30;;;;;;;17.60;15.95;;;;;;;;;;5026296;28;20034;-64
2022/03/23 12:11:56;;;;;;;17.27;15.73;;;;;;;;;;5028498;28;20041;-63
2022/03/23 12:14:23;;;;;;;17.50;15.73;;;;;;;;;;5028744;28;20043;-64
2022/03/23 12:16:49;;;;;;;16.85;15.13;;;;;;;;;;5027071;28;20120;-63
2022/03/23 12:19:26;;;;;;;16.45;14.85;;;;;;;;;;5028450;28;20136;-63
2022/03/23 12:21:58;;;;;;;16.80;15.20;;;;;;;;;;5042092;28;20519;-63
2022/03/23 12:24:53;;;;;;;15.15;13.70;;;;;;;;;;5028610;28;20566;-63
2022/03/23 12:27:26;;;;;;;15.65;14.15;;;;;;;;;;5022342;28;20075;-62
2022/03/23 12:29:52;;;;;;;15.35;13.88;;;;;;;;;;5027231;28;20045;-63
2022/03/23 12:32:18;;;;;;;15.57;13.88;;;;;;;;;;5028639;28;20037;-63
2022/03/23 12:34:45;;;;;;;14.52;13.13;;;;;;;;;;5026400;28;20451;-64
2022/03/23 12:37:18;;;;;;;14.55;13.13;;;;;;;;;;5027184;28;20478;-63
2022/03/23 12:39:46;;;;;;;13.45;12.27;;;;;;;;;;5024313;28;20365;-63
2022/03/23 12:42:12;;;;;;;15.23;13.63;;;;;;;;;;5027705;28;20042;-63
2022/03/23 12:45:09;;;;;;;14.52;13.23;;;;;;;;;;5028077;28;20124;-63
2022/03/23 12:47:35;;;;;;;15.82;14.15;;;;;;;;;;5026793;28;20061;-63
2022/03/23 12:58:31;;;;;;;15.13;13.00;;;;;;;;;;5027661;28;20046;-63
2022/03/23 13:01:10;;;;;;;13.98;12.60;;;;;;;;;;5026369;28;20115;-63
2022/03/23 13:03:42;;;;;;;13.48;12.02;;;;;;;;;;5027985;28;20053;-62
2022/03/23 13:06:10;;;;;;;13.37;12.17;;;;;;;;;;5028016;28;20092;-63
2022/03/23 13:08:47;;;;;;;12.95;11.82;;;;;;;;;;5027681;28;20041;-63
2022/03/23 13:11:13;;;;;;;14.27;11.68;;;;;;;;;;5029986;28;20088;-63
2022/03/23 13:13:40;;;;;;;15.45;12.05;;;;;;;;;;5031704;28;20037;-62
2022/03/23 13:16:10;;;;;;;12.88;11.10;;;;;;;;;;5030239;28;20060;-62
2022/03/23 13:18:36;;;;;;;14.55;11.55;;;;;;;;;;5031135;28;20038;-63
2022/03/23 13:21:03;;;;;;;11.95;10.82;;;;;;;;;;5029299;28;20045;-62
2022/03/23 13:23:29;;;;;;;13.52;11.52;;;;;;;;;;5030744;28;20073;-62
2022/03/23 13:26:14;;;;;;;13.40;10.55;;;;;;;;;;5031070;28;20132;-62
2022/03/23 13:28:43;;;;;;;12.57;11.13;;;;;;;;;;5031367;28;20037;-63
2022/03/23 13:31:12;;;;;;;11.77;10.57;;;;;;;;;;5031485;28;20052;-63
2022/03/23 13:33:45;;;;;;;14.48;10.35;;;;;;;;;;5030867;28;20079;-62
2022/03/23 13:36:14;;;;;;;14.55;10.40;;;;;;;;;;5029553;28;20136;-63
2022/03/23 13:38:41;;;;;;;15.13;10.65;;;;;;;;;;5030781;28;20064;-62
2022/03/23 13:43:54;;;;;;;12.35;10.35;;;;;;;;;;5029499;28;20049;-62
2022/03/23 13:46:21;;;;;;;15.88;11.20;;;;;;;;;;5030488;28;20579;-63
2022/03/23 13:48:59;;;;;;;14.63;10.07;;;;;;;;;;5030799;28;20049;-62
2022/03/23 13:51:36;;;;;;;14.70;9.73;;;;;;;;;;5031014;28;20112;-63
2022/03/23 13:54:04;;;;;;;17.05;10.30;;;;;;;;;;5030698;28;20450;-63
2022/03/23 13:56:31;;;;;;;13.63;9.30;;;;;;;;;;5030619;28;20045;-63
2022/03/23 13:58:58;;;;;;;14.18;9.52;;;;;;;;;;5030555;28;20531;-62
2022/03/23 14:01:25;;;;;;;15.73;9.52;;;;;;;;;;5012947;28;20121;-64
2022/03/23 14:03:53;;;;;;;16.40;9.50;;;;;;;;;;5029137;28;20077;-63
2022/03/23 14:06:19;;;;;;;15.57;9.60;;;;;;;;;;5031007;28;20047;-62
2022/03/23 14:08:55;;;;;;;17.13;9.70;;;;;;;;;;5030358;28;20387;-62
2022/03/23 14:11:47;;;;;;;18.08;9.00;;;;;;;;;;5030626;28;20037;-62
2022/03/23 14:14:22;;;;;;;15.95;9.68;;;;;;;;;;5030186;28;20039;-65
2022/03/23 14:17:01;;;;;;;12.50;10.45;;;;;;;;;;5030506;28;20152;-63
2022/03/23 14:19:27;;;;;;;15.68;13.88;;;;;;;;;;5029996;28;20045;-63
2022/03/23 14:22:01;;;;;;;15.20;13.05;;;;;;;;;;5028239;28;20124;-63
2022/03/23 14:24:31;;;;;;;18.15;13.82;;;;;;;;;;5029727;28;20041;-63
2022/03/23 14:27:16;;;;;;;17.48;14.20;;;;;;;;;;5029889;28;20033;-63
2022/03/23 14:29:43;;;;;;;16.58;14.30;;;;;;;;;;5027855;28;20044;-62
2022/03/23 14:32:13;;;;;;;18.27;15.02;;;;;;;;;;5028952;28;20048;-64
2022/03/23 14:34:46;;;;;;;17.15;15.65;;;;;;;;;;5028461;28;20636;-62
2022/03/23 14:37:15;;;;;;;21.00;18.63;;;;;;;;;;5028823;28;20136;-63
2022/03/23 14:39:45;;;;;;;19.67;17.85;;;;;;;;;;5025680;28;20049;-62
2022/03/23 14:42:13;;;;;;;19.30;17.35;;;;;;;;;;5027822;28;20487;-62
2022/03/23 14:44:44;;;;;;;19.33;17.52;;;;;;;;;;5029521;28;20103;-62
2022/03/23 14:47:10;;;;;;;17.70;16.10;;;;;;;;;;5026312;28;20044;-63